sensor_id;sensor_type;location;lat;lon;timestamp;P1;durP1;ratioP1;P2;durP2;ratioP2
46875;SDS011;32866;50.160;14.768;2023-02-15T00:00:51;35.55;;;22.45;;
46875;SDS011;32866;50.160;14.768;2023-02-15T00:03:19;36.03;;;20.20;;
46875;SDS011;32866;50.160;14.768;2023-02-15T00:05:45;36.13;;;20.38;;
46875;SDS011;32866;50.160;14.768;2023-02-15T00:08:10;34.70;;;20.35;;
46875;SDS011;32866;50.160;14.768;2023-02-15T00:10:36;37.47;;;22.10;;
46875;SDS011;32866;50.160;14.768;2023-02-15T00:13:01;33.08;;;21.98;;
46875;SDS011;32866;50.160;14.768;2023-02-15T00:15:27;39.75;;;20.67;;
46875;SDS011;32866;50.160;14.768;2023-02-15T00:17:52;36.45;;;22.17;;
46875;SDS011;32866;50.160;14.768;2023-02-15T00:20:17;35.03;;;20.15;;
46875;SDS011;32866;50.160;14.768;2023-02-15T00:25:09;37.10;;;19.77;;
46875;SDS011;32866;50.160;14.768;2023-02-15T00:27:34;34.65;;;20.42;;
46875;SDS011;32866;50.160;14.768;2023-02-15T00:30:00;33.25;;;18.92;;
46875;SDS011;32866;50.160;14.768;2023-02-15T00:32:25;32.80;;;19.48;;
46875;SDS011;32866;50.160;14.768;2023-02-15T00:34:50;33.53;;;19.83;;
46875;SDS011;32866;50.160;14.768;2023-02-15T00:37:16;34.95;;;21.63;;
46875;SDS011;32866;50.160;14.768;2023-02-15T00:39:41;35.15;;;22.13;;
46875;SDS011;32866;50.160;14.768;2023-02-15T00:42:06;30.60;;;18.60;;
46875;SDS011;32866;50.160;14.768;2023-02-15T00:44:32;36.05;;;20.33;;
46875;SDS011;32866;50.160;14.768;2023-02-15T00:46:57;33.42;;;19.98;;
46875;SDS011;32866;50.160;14.768;2023-02-15T00:49:23;31.63;;;20.17;;
46875;SDS011;32866;50.160;14.768;2023-02-15T00:51:48;38.35;;;20.95;;
46875;SDS011;32866;50.160;14.768;2023-02-15T00:54:13;37.92;;;21.08;;
46875;SDS011;32866;50.160;14.768;2023-02-15T00:56:39;33.38;;;19.95;;
46875;SDS011;32866;50.160;14.768;2023-02-15T00:59:04;32.80;;;19.88;;
46875;SDS011;32866;50.160;14.768;2023-02-15T01:01:29;37.53;;;21.05;;
46875;SDS011;32866;50.160;14.768;2023-02-15T01:03:55;34.45;;;20.40;;
46875;SDS011;32866;50.160;14.768;2023-02-15T01:06:20;36.33;;;22.30;;
46875;SDS011;32866;50.160;14.768;2023-02-15T01:08:46;33.03;;;18.63;;
46875;SDS011;32866;50.160;14.768;2023-02-15T01:11:12;34.47;;;19.65;;
46875;SDS011;32866;50.160;14.768;2023-02-15T01:13:40;39.00;;;20.63;;
46875;SDS011;32866;50.160;14.768;2023-02-15T01:16:06;32.55;;;19.52;;
46875;SDS011;32866;50.160;14.768;2023-02-15T01:18:32;33.28;;;20.23;;
46875;SDS011;32866;50.160;14.768;2023-02-15T01:20:57;35.00;;;20.83;;
46875;SDS011;32866;50.160;14.768;2023-02-15T01:23:22;34.05;;;20.25;;
46875;SDS011;32866;50.160;14.768;2023-02-15T01:25:48;34.67;;;21.92;;
46875;SDS011;32866;50.160;14.768;2023-02-15T01:28:13;35.53;;;21.25;;
46875;SDS011;32866;50.160;14.768;2023-02-15T01:30:39;34.67;;;21.85;;
46875;SDS011;32866;50.160;14.768;2023-02-15T01:33:05;34.22;;;21.27;;
46875;SDS011;32866;50.160;14.768;2023-02-15T01:35:30;35.83;;;22.88;;
46875;SDS011;32866;50.160;14.768;2023-02-15T01:37:56;33.83;;;19.98;;
46875;SDS011;32866;50.160;14.768;2023-02-15T01:40:22;32.75;;;20.35;;
46875;SDS011;32866;50.160;14.768;2023-02-15T01:42:51;32.50;;;19.47;;
46875;SDS011;32866;50.160;14.768;2023-02-15T01:45:23;32.40;;;19.83;;
46875;SDS011;32866;50.160;14.768;2023-02-15T01:50:52;31.23;;;17.73;;
46875;SDS011;32866;50.160;14.768;2023-02-15T01:53:36;38.03;;;21.17;;
46875;SDS011;32866;50.160;14.768;2023-02-15T01:56:08;35.33;;;20.00;;
46875;SDS011;32866;50.160;14.768;2023-02-15T01:58:38;37.60;;;21.13;;
46875;SDS011;32866;50.160;14.768;2023-02-15T02:01:05;40.75;;;19.45;;
46875;SDS011;32866;50.160;14.768;2023-02-15T02:06:22;36.30;;;20.73;;
46875;SDS011;32866;50.160;14.768;2023-02-15T02:11:14;35.10;;;20.97;;
46875;SDS011;32866;50.160;14.768;2023-02-15T02:13:40;39.35;;;22.33;;
46875;SDS011;32866;50.160;14.768;2023-02-15T02:16:10;41.87;;;23.40;;
46875;SDS011;32866;50.160;14.768;2023-02-15T02:27:11;40.47;;;22.07;;
46875;SDS011;32866;50.160;14.768;2023-02-15T02:29:52;40.23;;;22.33;;
46875;SDS011;32866;50.160;14.768;2023-02-15T02:40:56;37.93;;;20.87;;
46875;SDS011;32866;50.160;14.768;2023-02-15T02:43:53;44.87;;;22.03;;
46875;SDS011;32866;50.160;14.768;2023-02-15T02:46:30;33.97;;;20.08;;
46875;SDS011;32866;50.160;14.768;2023-02-15T02:49:04;34.92;;;21.50;;
46875;SDS011;32866;50.160;14.768;2023-02-15T02:51:29;38.75;;;22.98;;
46875;SDS011;32866;50.160;14.768;2023-02-15T02:53:55;34.80;;;21.75;;
46875;SDS011;32866;50.160;14.768;2023-02-15T02:56:27;38.27;;;22.30;;
46875;SDS011;32866;50.160;14.768;2023-02-15T02:59:16;40.97;;;23.27;;
46875;SDS011;32866;50.160;14.768;2023-02-15T03:01:50;36.27;;;20.90;;
46875;SDS011;32866;50.160;14.768;2023-02-15T03:04:21;36.50;;;19.93;;
46875;SDS011;32866;50.160;14.768;2023-02-15T03:06:55;41.97;;;23.87;;
46875;SDS011;32866;50.160;14.768;2023-02-15T03:09:26;38.03;;;23.10;;
46875;SDS011;32866;50.160;14.768;2023-02-15T03:11:59;39.30;;;23.33;;
46875;SDS011;32866;50.160;14.768;2023-02-15T03:14:26;41.83;;;22.43;;
46875;SDS011;32866;50.160;14.768;2023-02-15T03:16:52;40.37;;;22.83;;
46875;SDS011;32866;50.160;14.768;2023-02-15T03:19:27;40.50;;;23.70;;
46875;SDS011;32866;50.160;14.768;2023-02-15T03:22:04;44.73;;;24.57;;
46875;SDS011;32866;50.160;14.768;2023-02-15T03:24:42;42.50;;;22.50;;
46875;SDS011;32866;50.160;14.768;2023-02-15T03:27:17;44.23;;;25.53;;
46875;SDS011;32866;50.160;14.768;2023-02-15T03:29:48;40.00;;;21.57;;
46875;SDS011;32866;50.160;14.768;2023-02-15T03:32:18;40.67;;;22.87;;
46875;SDS011;32866;50.160;14.768;2023-02-15T03:34:44;41.17;;;24.00;;
46875;SDS011;32866;50.160;14.768;2023-02-15T03:37:13;40.67;;;22.77;;
46875;SDS011;32866;50.160;14.768;2023-02-15T03:39:45;45.63;;;24.57;;
46875;SDS011;32866;50.160;14.768;2023-02-15T03:42:17;38.70;;;22.23;;
46875;SDS011;32866;50.160;14.768;2023-02-15T03:45:02;44.73;;;23.63;;
46875;SDS011;32866;50.160;14.768;2023-02-15T03:47:32;36.47;;;21.07;;
46875;SDS011;32866;50.160;14.768;2023-02-15T03:50:08;45.27;;;23.03;;
46875;SDS011;32866;50.160;14.768;2023-02-15T03:52:57;43.50;;;23.20;;
46875;SDS011;32866;50.160;14.768;2023-02-15T03:55:24;44.97;;;23.90;;
46875;SDS011;32866;50.160;14.768;2023-02-15T03:57:50;43.30;;;23.83;;
46875;SDS011;32866;50.160;14.768;2023-02-15T04:00:35;46.83;;;23.67;;
46875;SDS011;32866;50.160;14.768;2023-02-15T04:03:42;40.70;;;23.50;;
46875;SDS011;32866;50.160;14.768;2023-02-15T04:06:10;41.93;;;22.67;;
46875;SDS011;32866;50.160;14.768;2023-02-15T04:08:36;43.60;;;23.75;;
46875;SDS011;32866;50.160;14.768;2023-02-15T04:11:20;44.07;;;23.03;;
46875;SDS011;32866;50.160;14.768;2023-02-15T04:13:45;42.58;;;23.88;;
46875;SDS011;32866;50.160;14.768;2023-02-15T04:16:10;46.65;;;24.23;;
46875;SDS011;32866;50.160;14.768;2023-02-15T04:18:40;45.88;;;22.67;;
46875;SDS011;32866;50.160;14.768;2023-02-15T04:21:25;46.77;;;24.43;;
46875;SDS011;32866;50.160;14.768;2023-02-15T04:24:13;43.23;;;22.67;;
46875;SDS011;32866;50.160;14.768;2023-02-15T04:26:58;42.67;;;22.53;;
46875;SDS011;32866;50.160;14.768;2023-02-15T04:29:24;46.30;;;25.57;;
46875;SDS011;32866;50.160;14.768;2023-02-15T04:31:56;42.70;;;23.07;;
46875;SDS011;32866;50.160;14.768;2023-02-15T04:34:24;48.13;;;23.43;;
46875;SDS011;32866;50.160;14.768;2023-02-15T04:39:16;45.13;;;23.33;;
46875;SDS011;32866;50.160;14.768;2023-02-15T04:41:43;44.73;;;24.67;;
46875;SDS011;32866;50.160;14.768;2023-02-15T04:44:09;46.85;;;24.38;;
46875;SDS011;32866;50.160;14.768;2023-02-15T04:46:34;47.47;;;25.38;;
46875;SDS011;32866;50.160;14.768;2023-02-15T04:49:00;43.92;;;25.02;;
46875;SDS011;32866;50.160;14.768;2023-02-15T04:51:25;42.63;;;23.05;;
46875;SDS011;32866;50.160;14.768;2023-02-15T04:53:50;48.50;;;23.70;;
46875;SDS011;32866;50.160;14.768;2023-02-15T04:56:19;47.90;;;25.53;;
46875;SDS011;32866;50.160;14.768;2023-02-15T04:58:44;46.38;;;25.17;;
46875;SDS011;32866;50.160;14.768;2023-02-15T05:01:10;45.95;;;25.02;;
46875;SDS011;32866;50.160;14.768;2023-02-15T05:03:36;48.45;;;25.42;;
46875;SDS011;32866;50.160;14.768;2023-02-15T05:06:01;46.80;;;25.27;;
46875;SDS011;32866;50.160;14.768;2023-02-15T05:08:27;50.97;;;25.25;;
46875;SDS011;32866;50.160;14.768;2023-02-15T05:10:52;43.50;;;23.52;;
46875;SDS011;32866;50.160;14.768;2023-02-15T05:13:18;43.22;;;23.67;;
46875;SDS011;32866;50.160;14.768;2023-02-15T05:15:50;45.60;;;24.58;;
46875;SDS011;32866;50.160;14.768;2023-02-15T05:18:17;44.93;;;23.47;;
46875;SDS011;32866;50.160;14.768;2023-02-15T05:20:43;45.90;;;24.13;;
46875;SDS011;32866;50.160;14.768;2023-02-15T05:23:09;45.10;;;23.52;;
46875;SDS011;32866;50.160;14.768;2023-02-15T05:25:35;42.53;;;25.52;;
46875;SDS011;32866;50.160;14.768;2023-02-15T05:28:19;47.93;;;25.87;;
46875;SDS011;32866;50.160;14.768;2023-02-15T05:30:49;47.10;;;23.83;;
46875;SDS011;32866;50.160;14.768;2023-02-15T05:33:16;44.67;;;23.90;;
46875;SDS011;32866;50.160;14.768;2023-02-15T05:35:42;45.70;;;24.53;;
46875;SDS011;32866;50.160;14.768;2023-02-15T05:38:07;45.53;;;24.88;;
46875;SDS011;32866;50.160;14.768;2023-02-15T05:40:33;47.67;;;24.45;;
46875;SDS011;32866;50.160;14.768;2023-02-15T05:42:58;47.92;;;23.30;;
46875;SDS011;32866;50.160;14.768;2023-02-15T05:45:23;43.28;;;23.35;;
46875;SDS011;32866;50.160;14.768;2023-02-15T05:47:49;45.08;;;23.95;;
46875;SDS011;32866;50.160;14.768;2023-02-15T05:50:15;43.20;;;22.98;;
46875;SDS011;32866;50.160;14.768;2023-02-15T05:52:40;51.22;;;25.10;;
46875;SDS011;32866;50.160;14.768;2023-02-15T05:55:06;53.28;;;26.25;;
46875;SDS011;32866;50.160;14.768;2023-02-15T05:57:33;48.20;;;25.47;;
46875;SDS011;32866;50.160;14.768;2023-02-15T05:59:59;53.28;;;24.35;;
46875;SDS011;32866;50.160;14.768;2023-02-15T06:02:24;43.58;;;24.85;;
46875;SDS011;32866;50.160;14.768;2023-02-15T06:04:49;45.83;;;24.02;;
46875;SDS011;32866;50.160;14.768;2023-02-15T06:07:15;51.63;;;25.67;;
46875;SDS011;32866;50.160;14.768;2023-02-15T06:09:40;49.42;;;25.55;;
46875;SDS011;32866;50.160;14.768;2023-02-15T06:12:05;47.92;;;25.52;;
46875;SDS011;32866;50.160;14.768;2023-02-15T06:14:31;47.28;;;25.45;;
46875;SDS011;32866;50.160;14.768;2023-02-15T06:16:56;46.47;;;23.33;;
46875;SDS011;32866;50.160;14.768;2023-02-15T06:19:21;50.80;;;25.52;;
46875;SDS011;32866;50.160;14.768;2023-02-15T06:21:47;50.15;;;24.60;;
46875;SDS011;32866;50.160;14.768;2023-02-15T06:26:38;48.83;;;23.33;;
46875;SDS011;32866;50.160;14.768;2023-02-15T06:29:04;51.67;;;24.63;;
46875;SDS011;32866;50.160;14.768;2023-02-15T06:31:29;43.60;;;23.08;;
46875;SDS011;32866;50.160;14.768;2023-02-15T06:33:55;48.67;;;23.60;;
46875;SDS011;32866;50.160;14.768;2023-02-15T06:36:29;48.97;;;25.00;;
46875;SDS011;32866;50.160;14.768;2023-02-15T06:38:55;43.87;;;23.33;;
46875;SDS011;32866;50.160;14.768;2023-02-15T06:41:21;47.88;;;23.40;;
46875;SDS011;32866;50.160;14.768;2023-02-15T06:43:46;48.22;;;23.63;;
46875;SDS011;32866;50.160;14.768;2023-02-15T06:46:12;46.70;;;25.60;;
46875;SDS011;32866;50.160;14.768;2023-02-15T06:48:37;53.65;;;25.10;;
46875;SDS011;32866;50.160;14.768;2023-02-15T06:51:02;50.05;;;25.48;;
46875;SDS011;32866;50.160;14.768;2023-02-15T06:53:28;53.15;;;25.42;;
46875;SDS011;32866;50.160;14.768;2023-02-15T06:55:59;49.33;;;26.05;;
46875;SDS011;32866;50.160;14.768;2023-02-15T06:58:27;49.77;;;26.10;;
46875;SDS011;32866;50.160;14.768;2023-02-15T07:00:53;52.08;;;25.05;;
46875;SDS011;32866;50.160;14.768;2023-02-15T07:03:18;49.33;;;23.75;;
46875;SDS011;32866;50.160;14.768;2023-02-15T07:05:43;45.60;;;23.85;;
46875;SDS011;32866;50.160;14.768;2023-02-15T07:08:13;44.23;;;24.63;;
46875;SDS011;32866;50.160;14.768;2023-02-15T07:10:38;55.30;;;25.60;;
46875;SDS011;32866;50.160;14.768;2023-02-15T07:13:04;52.55;;;26.60;;
46875;SDS011;32866;50.160;14.768;2023-02-15T07:15:29;48.50;;;22.50;;
46875;SDS011;32866;50.160;14.768;2023-02-15T07:17:54;49.20;;;24.80;;
46875;SDS011;32866;50.160;14.768;2023-02-15T07:20:22;50.63;;;24.87;;
46875;SDS011;32866;50.160;14.768;2023-02-15T07:22:48;43.30;;;24.10;;
46875;SDS011;32866;50.160;14.768;2023-02-15T07:25:14;49.20;;;25.50;;
46875;SDS011;32866;50.160;14.768;2023-02-15T07:27:40;46.38;;;24.88;;
46875;SDS011;32866;50.160;14.768;2023-02-15T07:30:06;49.60;;;23.38;;
46875;SDS011;32866;50.160;14.768;2023-02-15T07:32:34;49.07;;;24.93;;
46875;SDS011;32866;50.160;14.768;2023-02-15T07:34:59;47.58;;;23.15;;
46875;SDS011;32866;50.160;14.768;2023-02-15T07:37:25;46.55;;;24.30;;
46875;SDS011;32866;50.160;14.768;2023-02-15T07:42:16;46.67;;;23.57;;
46875;SDS011;32866;50.160;14.768;2023-02-15T07:44:42;43.85;;;22.38;;
46875;SDS011;32866;50.160;14.768;2023-02-15T07:47:08;45.25;;;24.77;;
46875;SDS011;32866;50.160;14.768;2023-02-15T07:49:33;51.92;;;23.83;;
46875;SDS011;32866;50.160;14.768;2023-02-15T07:52:00;53.30;;;25.63;;
46875;SDS011;32866;50.160;14.768;2023-02-15T07:54:26;51.03;;;24.53;;
46875;SDS011;32866;50.160;14.768;2023-02-15T07:56:52;54.95;;;26.33;;
46875;SDS011;32866;50.160;14.768;2023-02-15T07:59:17;50.83;;;24.50;;
46875;SDS011;32866;50.160;14.768;2023-02-15T08:01:42;55.15;;;26.52;;
46875;SDS011;32866;50.160;14.768;2023-02-15T08:04:08;50.70;;;22.98;;
46875;SDS011;32866;50.160;14.768;2023-02-15T08:06:36;53.37;;;23.97;;
46875;SDS011;32866;50.160;14.768;2023-02-15T08:09:06;51.50;;;24.77;;
46875;SDS011;32866;50.160;14.768;2023-02-15T08:11:47;50.33;;;24.87;;
46875;SDS011;32866;50.160;14.768;2023-02-15T08:14:14;46.27;;;25.20;;
46875;SDS011;32866;50.160;14.768;2023-02-15T08:16:46;50.43;;;23.90;;
46875;SDS011;32866;50.160;14.768;2023-02-15T08:22:00;44.50;;;22.33;;
46875;SDS011;32866;50.160;14.768;2023-02-15T08:24:29;51.23;;;22.43;;
46875;SDS011;32866;50.160;14.768;2023-02-15T08:26:56;51.80;;;25.10;;
46875;SDS011;32866;50.160;14.768;2023-02-15T08:29:22;53.72;;;23.75;;
46875;SDS011;32866;50.160;14.768;2023-02-15T08:31:50;52.43;;;26.47;;
46875;SDS011;32866;50.160;14.768;2023-02-15T08:34:18;55.40;;;26.07;;
46875;SDS011;32866;50.160;14.768;2023-02-15T08:36:45;53.50;;;25.60;;
46875;SDS011;32866;50.160;14.768;2023-02-15T08:39:10;58.83;;;25.67;;
46875;SDS011;32866;50.160;14.768;2023-02-15T08:44:04;61.43;;;25.80;;
46875;SDS011;32866;50.160;14.768;2023-02-15T08:46:32;57.97;;;25.30;;
46875;SDS011;32866;50.160;14.768;2023-02-15T08:48:59;56.40;;;24.90;;
46875;SDS011;32866;50.160;14.768;2023-02-15T08:51:31;57.53;;;26.13;;
46875;SDS011;32866;50.160;14.768;2023-02-15T08:54:02;51.90;;;26.47;;
46875;SDS011;32866;50.160;14.768;2023-02-15T08:56:31;50.67;;;24.33;;
46875;SDS011;32866;50.160;14.768;2023-02-15T08:58:58;60.50;;;26.07;;
46875;SDS011;32866;50.160;14.768;2023-02-15T09:01:25;62.25;;;27.83;;
46875;SDS011;32866;50.160;14.768;2023-02-15T09:03:56;64.23;;;26.63;;
46875;SDS011;32866;50.160;14.768;2023-02-15T09:06:35;57.50;;;26.70;;
46875;SDS011;32866;50.160;14.768;2023-02-15T09:09:04;57.10;;;27.87;;
46875;SDS011;32866;50.160;14.768;2023-02-15T09:11:32;60.60;;;25.90;;
46875;SDS011;32866;50.160;14.768;2023-02-15T09:14:01;45.80;;;25.33;;
46875;SDS011;32866;50.160;14.768;2023-02-15T09:16:29;55.40;;;25.57;;
46875;SDS011;32866;50.160;14.768;2023-02-15T09:18:56;61.13;;;26.80;;
46875;SDS011;32866;50.160;14.768;2023-02-15T09:21:29;54.17;;;26.10;;
46875;SDS011;32866;50.160;14.768;2023-02-15T09:26:23;49.58;;;26.23;;
46875;SDS011;32866;50.160;14.768;2023-02-15T09:28:53;51.20;;;25.10;;
46875;SDS011;32866;50.160;14.768;2023-02-15T09:31:21;57.63;;;26.37;;
46875;SDS011;32866;50.160;14.768;2023-02-15T09:33:48;53.73;;;26.17;;
46875;SDS011;32866;50.160;14.768;2023-02-15T09:38:58;62.63;;;29.53;;
46875;SDS011;32866;50.160;14.768;2023-02-15T09:47:31;52.83;;;25.67;;
46875;SDS011;32866;50.160;14.768;2023-02-15T10:04:11;61.10;;;25.63;;
46875;SDS011;32866;50.160;14.768;2023-02-15T10:24:45;56.53;;;27.53;;
46875;SDS011;32866;50.160;14.768;2023-02-15T10:26:44;61.20;;;27.57;;
46875;SDS011;32866;50.160;14.768;2023-02-15T10:29:22;57.90;;;26.53;;
46875;SDS011;32866;50.160;14.768;2023-02-15T10:34:47;64.43;;;27.07;;
46875;SDS011;32866;50.160;14.768;2023-02-15T10:37:20;61.30;;;27.35;;
46875;SDS011;32866;50.160;14.768;2023-02-15T10:47:01;59.10;;;26.60;;
46875;SDS011;32866;50.160;14.768;2023-02-15T11:06:31;56.40;;;23.92;;
46875;SDS011;32866;50.160;14.768;2023-02-15T11:09:03;57.57;;;24.93;;
46875;SDS011;32866;50.160;14.768;2023-02-15T11:11:38;57.93;;;26.03;;
46875;SDS011;32866;50.160;14.768;2023-02-15T11:17:06;56.97;;;25.27;;
46875;SDS011;32866;50.160;14.768;2023-02-15T11:19:37;58.87;;;26.50;;
46875;SDS011;32866;50.160;14.768;2023-02-15T11:22:09;50.77;;;23.97;;
46875;SDS011;32866;50.160;14.768;2023-02-15T11:24:42;56.80;;;26.23;;
46875;SDS011;32866;50.160;14.768;2023-02-15T11:29:54;60.75;;;27.92;;
46875;SDS011;32866;50.160;14.768;2023-02-15T11:35:00;63.10;;;27.00;;
46875;SDS011;32866;50.160;14.768;2023-02-15T11:37:40;69.17;;;29.53;;
46875;SDS011;32866;50.160;14.768;2023-02-15T11:43:05;62.50;;;27.08;;
46875;SDS011;32866;50.160;14.768;2023-02-15T11:45:37;64.10;;;25.97;;
46875;SDS011;32866;50.160;14.768;2023-02-15T11:48:11;59.23;;;27.43;;
46875;SDS011;32866;50.160;14.768;2023-02-15T11:50:39;51.93;;;25.80;;
46875;SDS011;32866;50.160;14.768;2023-02-15T11:53:07;58.10;;;27.60;;
46875;SDS011;32866;50.160;14.768;2023-02-15T11:55:37;53.63;;;24.80;;
46875;SDS011;32866;50.160;14.768;2023-02-15T12:00:54;57.27;;;26.50;;
46875;SDS011;32866;50.160;14.768;2023-02-15T12:06:14;55.60;;;23.63;;
46875;SDS011;32866;50.160;14.768;2023-02-15T12:08:42;57.37;;;26.60;;
46875;SDS011;32866;50.160;14.768;2023-02-15T12:11:17;48.53;;;25.10;;
46875;SDS011;32866;50.160;14.768;2023-02-15T12:14:20;50.43;;;24.53;;
46875;SDS011;32866;50.160;14.768;2023-02-15T12:19:24;56.37;;;26.10;;
46875;SDS011;32866;50.160;14.768;2023-02-15T12:21:54;56.00;;;25.43;;
46875;SDS011;32866;50.160;14.768;2023-02-15T12:24:23;61.57;;;27.57;;
46875;SDS011;32866;50.160;14.768;2023-02-15T12:26:56;49.53;;;25.33;;
46875;SDS011;32866;50.160;14.768;2023-02-15T12:29:30;50.72;;;26.48;;
46875;SDS011;32866;50.160;14.768;2023-02-15T12:32:00;58.77;;;26.80;;
46875;SDS011;32866;50.160;14.768;2023-02-15T12:34:29;59.08;;;25.98;;
46875;SDS011;32866;50.160;14.768;2023-02-15T12:36:57;55.03;;;25.40;;
46875;SDS011;32866;50.160;14.768;2023-02-15T12:39:34;56.43;;;27.40;;
46875;SDS011;32866;50.160;14.768;2023-02-15T12:42:01;55.05;;;25.55;;
46875;SDS011;32866;50.160;14.768;2023-02-15T12:44:53;62.60;;;26.95;;
46875;SDS011;32866;50.160;14.768;2023-02-15T12:47:30;63.63;;;27.53;;
46875;SDS011;32866;50.160;14.768;2023-02-15T12:52:43;57.17;;;25.88;;
46875;SDS011;32866;50.160;14.768;2023-02-15T12:57:47;52.17;;;26.63;;
46875;SDS011;32866;50.160;14.768;2023-02-15T13:02:48;54.00;;;24.57;;
46875;SDS011;32866;50.160;14.768;2023-02-15T13:05:18;57.97;;;27.47;;
46875;SDS011;32866;50.160;14.768;2023-02-15T13:07:52;54.20;;;24.53;;
46875;SDS011;32866;50.160;14.768;2023-02-15T13:10:39;56.00;;;25.77;;
46875;SDS011;32866;50.160;14.768;2023-02-15T13:13:11;54.83;;;26.10;;
46875;SDS011;32866;50.160;14.768;2023-02-15T13:15:44;52.87;;;24.73;;
46875;SDS011;32866;50.160;14.768;2023-02-15T13:18:16;49.33;;;25.23;;
46875;SDS011;32866;50.160;14.768;2023-02-15T13:21:04;52.95;;;24.50;;
46875;SDS011;32866;50.160;14.768;2023-02-15T13:23:34;53.27;;;25.13;;
46875;SDS011;32866;50.160;14.768;2023-02-15T13:26:02;51.47;;;24.77;;
46875;SDS011;32866;50.160;14.768;2023-02-15T13:28:37;55.03;;;26.53;;
46875;SDS011;32866;50.160;14.768;2023-02-15T13:31:11;51.20;;;23.30;;
46875;SDS011;32866;50.160;14.768;2023-02-15T13:33:38;51.67;;;24.17;;
46875;SDS011;32866;50.160;14.768;2023-02-15T13:50:21;49.33;;;21.53;;
46875;SDS011;32866;50.160;14.768;2023-02-15T13:53:22;45.03;;;22.47;;
46875;SDS011;32866;50.160;14.768;2023-02-15T14:21:48;50.50;;;23.00;;
46875;SDS011;32866;50.160;14.768;2023-02-15T14:24:25;44.53;;;22.83;;
46875;SDS011;32866;50.160;14.768;2023-02-15T14:29:56;52.50;;;23.17;;
46875;SDS011;32866;50.160;14.768;2023-02-15T14:32:33;49.90;;;21.93;;
46875;SDS011;32866;50.160;14.768;2023-02-15T14:35:05;44.43;;;22.80;;
46875;SDS011;32866;50.160;14.768;2023-02-15T14:56:43;44.47;;;21.73;;
46875;SDS011;32866;50.160;14.768;2023-02-15T14:59:19;43.47;;;22.70;;
46875;SDS011;32866;50.160;14.768;2023-02-15T15:04:35;42.30;;;23.63;;
46875;SDS011;32866;50.160;14.768;2023-02-15T15:09:32;43.73;;;22.57;;
46875;SDS011;32866;50.160;14.768;2023-02-15T15:14:42;45.43;;;22.37;;
46875;SDS011;32866;50.160;14.768;2023-02-15T15:17:11;47.93;;;23.80;;
46875;SDS011;32866;50.160;14.768;2023-02-15T15:22:31;53.50;;;24.17;;
46875;SDS011;32866;50.160;14.768;2023-02-15T15:27:57;48.93;;;24.27;;
46875;SDS011;32866;50.160;14.768;2023-02-15T15:46:42;48.13;;;25.43;;
46875;SDS011;32866;50.160;14.768;2023-02-15T15:49:18;44.47;;;23.23;;
46875;SDS011;32866;50.160;14.768;2023-02-15T15:51:46;53.90;;;26.10;;
46875;SDS011;32866;50.160;14.768;2023-02-15T15:54:18;46.88;;;24.05;;
46875;SDS011;32866;50.160;14.768;2023-02-15T15:57:04;54.50;;;26.53;;
46875;SDS011;32866;50.160;14.768;2023-02-15T15:59:32;55.33;;;26.27;;
46875;SDS011;32866;50.160;14.768;2023-02-15T16:02:05;48.30;;;25.27;;
46875;SDS011;32866;50.160;14.768;2023-02-15T16:04:32;54.73;;;28.00;;
46875;SDS011;32866;50.160;14.768;2023-02-15T16:12:23;56.67;;;26.83;;
46875;SDS011;32866;50.160;14.768;2023-02-15T16:14:50;58.60;;;27.07;;
46875;SDS011;32866;50.160;14.768;2023-02-15T16:17:20;56.93;;;27.10;;
46875;SDS011;32866;50.160;14.768;2023-02-15T16:19:48;50.60;;;24.97;;
46875;SDS011;32866;50.160;14.768;2023-02-15T16:22:19;52.47;;;25.57;;
46875;SDS011;32866;50.160;14.768;2023-02-15T16:33:07;55.17;;;28.83;;
46875;SDS011;32866;50.160;14.768;2023-02-15T16:35:35;61.17;;;28.73;;
46875;SDS011;32866;50.160;14.768;2023-02-15T16:38:03;77.87;;;35.33;;
46875;SDS011;32866;50.160;14.768;2023-02-15T16:40:42;88.53;;;37.23;;
46875;SDS011;32866;50.160;14.768;2023-02-15T16:43:16;78.67;;;34.87;;
46875;SDS011;32866;50.160;14.768;2023-02-15T16:45:46;93.63;;;38.47;;
46875;SDS011;32866;50.160;14.768;2023-02-15T16:48:14;74.78;;;33.97;;
46875;SDS011;32866;50.160;14.768;2023-02-15T16:50:46;90.43;;;39.13;;
46875;SDS011;32866;50.160;14.768;2023-02-15T16:53:16;83.00;;;36.07;;
46875;SDS011;32866;50.160;14.768;2023-02-15T16:55:48;71.63;;;34.60;;
46875;SDS011;32866;50.160;14.768;2023-02-15T16:58:16;74.50;;;32.60;;
46875;SDS011;32866;50.160;14.768;2023-02-15T17:00:46;71.70;;;33.33;;
46875;SDS011;32866;50.160;14.768;2023-02-15T17:08:23;69.83;;;30.97;;
46875;SDS011;32866;50.160;14.768;2023-02-15T17:13:34;65.60;;;30.30;;
46875;SDS011;32866;50.160;14.768;2023-02-15T17:18:38;73.60;;;32.10;;
46875;SDS011;32866;50.160;14.768;2023-02-15T17:21:09;62.73;;;29.37;;
46875;SDS011;32866;50.160;14.768;2023-02-15T17:23:47;73.80;;;31.87;;
46875;SDS011;32866;50.160;14.768;2023-02-15T17:28:44;67.10;;;31.85;;
46875;SDS011;32866;50.160;14.768;2023-02-15T17:31:12;69.87;;;30.53;;
46875;SDS011;32866;50.160;14.768;2023-02-15T17:33:41;65.27;;;30.53;;
46875;SDS011;32866;50.160;14.768;2023-02-15T17:36:20;65.18;;;27.80;;
46875;SDS011;32866;50.160;14.768;2023-02-15T17:41:21;71.53;;;29.50;;
46875;SDS011;32866;50.160;14.768;2023-02-15T17:43:47;63.22;;;30.30;;
46875;SDS011;32866;50.160;14.768;2023-02-15T17:46:12;63.38;;;29.33;;
46875;SDS011;32866;50.160;14.768;2023-02-15T17:48:39;69.60;;;33.22;;
46875;SDS011;32866;50.160;14.768;2023-02-15T17:51:06;64.97;;;32.10;;
46875;SDS011;32866;50.160;14.768;2023-02-15T17:53:36;81.70;;;34.40;;
46875;SDS011;32866;50.160;14.768;2023-02-15T17:56:02;74.72;;;31.85;;
46875;SDS011;32866;50.160;14.768;2023-02-15T17:58:34;75.53;;;31.13;;
46875;SDS011;32866;50.160;14.768;2023-02-15T18:01:05;65.80;;;30.57;;
46875;SDS011;32866;50.160;14.768;2023-02-15T18:03:53;71.83;;;32.47;;
46875;SDS011;32866;50.160;14.768;2023-02-15T18:06:39;71.50;;;31.97;;
46875;SDS011;32866;50.160;14.768;2023-02-15T18:09:24;72.68;;;31.67;;
46875;SDS011;32866;50.160;14.768;2023-02-15T18:14:37;78.60;;;33.30;;
46875;SDS011;32866;50.160;14.768;2023-02-15T18:17:02;66.88;;;32.92;;
46875;SDS011;32866;50.160;14.768;2023-02-15T18:19:29;72.83;;;33.37;;
46875;SDS011;32866;50.160;14.768;2023-02-15T18:21:54;75.15;;;33.35;;
46875;SDS011;32866;50.160;14.768;2023-02-15T18:24:22;65.13;;;31.23;;
46875;SDS011;32866;50.160;14.768;2023-02-15T18:26:49;74.43;;;33.47;;
46875;SDS011;32866;50.160;14.768;2023-02-15T18:29:15;75.05;;;33.60;;
46875;SDS011;32866;50.160;14.768;2023-02-15T18:31:41;73.50;;;32.40;;
46875;SDS011;32866;50.160;14.768;2023-02-15T18:34:12;71.43;;;35.00;;
46875;SDS011;32866;50.160;14.768;2023-02-15T18:36:47;72.73;;;35.17;;
46875;SDS011;32866;50.160;14.768;2023-02-15T18:39:55;69.20;;;33.53;;
46875;SDS011;32866;50.160;14.768;2023-02-15T18:42:29;72.20;;;33.60;;
46875;SDS011;32866;50.160;14.768;2023-02-15T18:45:00;79.60;;;33.43;;